Terminal Aerodrome Forecast
Issued by NWS

Home | Current Version | Previous Version | Text Only | Print | Product List | Glossary On
Versions: 1 2 3 4 5 6 7 8 9 10 11 12 13 14 15 16 17 18 19 20
000
FTUS45 KABQ 201400 AAA
TAFFMN
TAF AMD
KFMN 201402Z 2014/2112 09005KT P6SM SCT009 SCT150
      TEMPO 2014/2015 5SM BR BKN004
     FM201700 28007KT P6SM SCT150
     FM210200 05005KT P6SM BKN080=

USA.gov is the U.S. government's official web portal to all federal, state and local government web resources and services.